Time;durP1;ratioP1;P1;durP2;ratioP2;P2;SDS_P1;SDS_P2;PMS_P1;PMS_P2;Temp;Humidity;BMP_temperature;BMP_pressure;BME280_temperature;BME280_humidity;BME280_pressure;Samples;Min_cycle;Max_cycle;Signal;HPM_P1;HPM_P2
2021/11/25 00:00:31;;;;;;;8.57;6.43;;;7.80;99.90;;;;;;2080167;28;20021;-70
2021/11/25 00:01:32;;;;;;;8.15;7.20;;;7.70;99.90;;;;;;2080132;28;20026;-70
2021/11/25 00:02:33;;;;;;;9.20;7.45;;;7.70;99.90;;;;;;2079389;28;20112;-70
2021/11/25 00:03:33;;;;;;;7.88;6.50;;;7.70;99.90;;;;;;2079531;28;20026;-70
2021/11/25 00:04:34;;;;;;;10.30;7.10;;;7.70;99.90;;;;;;2080007;28;20017;-70
2021/11/25 00:05:35;;;;;;;7.60;6.80;;;7.70;99.90;;;;;;2079666;28;20036;-70
2021/11/25 00:06:35;;;;;;;8.48;6.80;;;7.70;99.90;;;;;;2080095;28;20409;-70
2021/11/25 00:07:37;;;;;;;8.85;6.88;;;7.70;99.90;;;;;;2074216;28;20022;-70
2021/11/25 00:08:38;;;;;;;7.18;6.47;;;7.70;99.90;;;;;;2076107;28;20052;-71
2021/11/25 00:09:38;;;;;;;7.93;6.53;;;7.70;99.90;;;;;;2080102;28;20030;-70
2021/11/25 00:10:40;;;;;;;7.25;5.93;;;7.70;99.90;;;;;;2079703;28;20029;-70
2021/11/25 00:11:40;;;;;;;7.63;6.75;;;7.70;99.90;;;;;;2080082;28;20072;-70
2021/11/25 00:12:42;;;;;;;7.05;6.38;;;7.70;99.90;;;;;;2080264;28;20029;-70
2021/11/25 00:13:43;;;;;;;8.25;6.25;;;7.70;99.90;;;;;;2077436;28;20030;-70
2021/11/25 00:14:43;;;;;;;8.40;6.43;;;7.70;99.90;;;;;;2075208;28;20025;-70
2021/11/25 00:15:44;;;;;;;7.47;6.78;;;7.70;99.90;;;;;;2079875;28;20044;-70
2021/11/25 00:16:46;;;;;;;7.93;6.45;;;7.80;99.90;;;;;;2080681;28;20026;-70
2021/11/25 00:17:47;;;;;;;12.00;7.22;;;7.70;99.90;;;;;;2080125;28;20587;-70
2021/11/25 00:18:47;;;;;;;10.70;7.72;;;7.70;99.90;;;;;;2080192;28;20029;-70
2021/11/25 00:19:48;;;;;;;9.30;7.57;;;7.70;99.90;;;;;;2079156;28;20022;-70
2021/11/25 00:20:49;;;;;;;11.00;7.55;;;7.70;99.90;;;;;;2078931;28;20030;-70
2021/11/25 00:21:50;;;;;;;9.80;7.50;;;7.70;99.90;;;;;;2077206;28;20538;-70
2021/11/25 00:22:50;;;;;;;9.05;7.50;;;7.70;99.90;;;;;;2078493;28;20033;-70
2021/11/25 00:23:51;;;;;;;10.82;7.93;;;7.70;99.90;;;;;;2076276;28;20030;-70
2021/11/25 00:24:51;;;;;;;9.95;7.38;;;7.70;99.90;;;;;;2078623;28;20485;-70
2021/11/25 00:25:52;;;;;;;12.80;8.60;;;7.60;99.90;;;;;;2079908;28;20039;-70
2021/11/25 00:26:53;;;;;;;9.98;7.93;;;7.60;99.90;;;;;;2074860;28;20355;-70
2021/11/25 00:27:54;;;;;;;8.57;7.30;;;7.60;99.90;;;;;;2081307;28;20025;-70
2021/11/25 00:28:54;;;;;;;9.23;7.57;;;7.70;99.90;;;;;;2079814;28;20111;-70
2021/11/25 00:29:55;;;;;;;9.57;7.15;;;7.70;99.90;;;;;;2079824;28;20045;-70
2021/11/25 00:30:55;;;;;;;8.70;7.30;;;7.70;99.90;;;;;;2079482;28;20478;-70
2021/11/25 00:31:56;;;;;;;9.60;7.18;;;7.70;99.90;;;;;;2082140;28;20033;-70
2021/11/25 00:32:57;;;;;;;8.77;6.63;;;7.70;99.90;;;;;;2079878;28;20056;-70
2021/11/25 00:33:58;;;;;;;9.82;7.70;;;7.70;99.90;;;;;;2079793;28;20668;-70
2021/11/25 00:34:59;;;;;;;9.25;7.13;;;7.70;99.90;;;;;;2075175;28;20033;-70
2021/11/25 00:35:59;;;;;;;9.88;7.60;;;7.70;99.90;;;;;;2071641;28;20025;-70
2021/11/25 00:37:00;;;;;;;12.13;8.25;;;7.80;99.90;;;;;;2077283;28;20052;-70
2021/11/25 00:38:01;;;;;;;9.90;7.72;;;7.80;99.90;;;;;;2076853;28;20041;-70
2021/11/25 00:39:02;;;;;;;8.15;6.85;;;7.70;99.90;;;;;;2071610;28;20026;-70
2021/11/25 00:40:04;;;;;;;9.50;7.07;;;7.70;99.90;;;;;;2071480;28;20791;-70
2021/11/25 00:41:04;;;;;;;10.13;7.60;;;7.70;99.90;;;;;;2071095;28;20072;-70
2021/11/25 00:42:05;;;;;;;10.13;7.68;;;7.70;99.90;;;;;;2071118;28;20026;-70
2021/11/25 00:43:06;;;;;;;8.70;7.53;;;7.70;99.90;;;;;;2075520;28;20096;-70
2021/11/25 00:44:07;;;;;;;10.80;7.57;;;7.80;99.90;;;;;;2080015;28;20025;-70
2021/11/25 00:45:09;;;;;;;11.75;8.10;;;7.70;99.90;;;;;;2079629;28;20021;-70
2021/11/25 00:46:10;;;;;;;10.73;8.25;;;7.70;99.90;;;;;;2079790;28;20018;-70
2021/11/25 00:47:10;;;;;;;10.25;7.93;;;7.60;99.90;;;;;;2079777;28;20033;-70
2021/11/25 00:48:11;;;;;;;10.20;8.55;;;7.60;99.90;;;;;;2073771;28;20034;-70
2021/11/25 00:49:12;;;;;;;11.07;8.60;;;7.60;99.90;;;;;;2071293;28;20030;-70
2021/11/25 00:50:14;;;;;;;11.50;8.07;;;7.60;99.90;;;;;;2079073;28;20013;-70
2021/11/25 00:51:15;;;;;;;10.57;8.77;;;7.60;99.90;;;;;;2079150;28;20029;-70
2021/11/25 00:52:16;;;;;;;11.55;8.85;;;7.60;99.90;;;;;;2079985;28;20033;-70
2021/11/25 00:53:18;;;;;;;13.27;8.90;;;7.60;99.90;;;;;;2079117;28;20025;-70
2021/11/25 00:54:18;;;;;;;11.57;8.95;;;7.60;99.90;;;;;;2076249;28;20033;-70
2021/11/25 00:55:19;;;;;;;11.20;8.63;;;7.60;99.90;;;;;;2075918;28;20552;-70
2021/11/25 00:56:20;;;;;;;12.05;8.43;;;7.60;99.90;;;;;;2079859;28;20064;-70
2021/11/25 00:57:21;;;;;;;9.60;8.00;;;7.60;99.90;;;;;;2079457;28;20492;-70
2021/11/25 00:58:22;;;;;;;12.77;8.88;;;7.60;99.90;;;;;;2080104;28;20044;-70
2021/11/25 00:59:23;;;;;;;12.10;8.43;;;7.70;99.90;;;;;;2079443;28;20083;-70
2021/11/25 01:00:23;;;;;;;10.68;8.93;;;7.70;99.90;;;;;;2079780;28;20592;-70
2021/11/25 01:01:24;;;;;;;11.45;7.93;;;7.70;99.90;;;;;;2071461;28;20026;-70
2021/11/25 01:02:24;;;;;;;13.43;8.90;;;7.70;99.90;;;;;;2071569;28;20258;-70
2021/11/25 01:03:25;;;;;;;13.85;8.43;;;7.70;99.90;;;;;;2074014;28;20086;-70
2021/11/25 01:04:26;;;;;;;12.07;9.20;;;7.70;99.90;;;;;;2079095;28;20033;-70
2021/11/25 01:05:27;;;;;;;12.00;8.93;;;7.70;99.90;;;;;;2079564;28;20025;-70
2021/11/25 01:06:28;;;;;;;11.43;8.77;;;7.70;99.90;;;;;;2079254;28;20450;-70
2021/11/25 01:07:30;;;;;;;8.90;7.30;;;7.70;99.90;;;;;;2079708;28;20025;-70
2021/11/25 01:08:31;;;;;;;12.18;8.90;;;7.80;99.90;;;;;;2079676;28;20075;-70
2021/11/25 01:09:31;;;;;;;10.50;8.25;;;7.80;99.90;;;;;;2079436;28;20493;-70
2021/11/25 01:10:33;;;;;;;8.98;7.07;;;7.80;99.90;;;;;;2079703;28;20041;-70
2021/11/25 01:11:34;;;;;;;9.75;6.97;;;7.70;99.90;;;;;;2078730;28;20032;-70
2021/11/25 01:12:36;;;;;;;9.77;8.10;;;7.80;99.90;;;;;;2079060;28;20029;-70
2021/11/25 01:13:37;;;;;;;10.35;7.00;;;7.80;99.90;;;;;;2079084;28;20033;-70
2021/11/25 01:14:38;;;;;;;11.82;7.65;;;7.80;99.90;;;;;;2078649;28;20033;-70
2021/11/25 01:15:40;;;;;;;8.90;7.72;;;7.80;99.90;;;;;;2075008;28;20022;-70
2021/11/25 01:16:41;;;;;;;9.75;7.53;;;7.80;99.90;;;;;;2078250;28;20017;-70
2021/11/25 01:17:43;;;;;;;9.15;7.50;;;7.80;99.90;;;;;;2071012;28;20026;-70
2021/11/25 01:18:44;;;;;;;10.00;8.25;;;7.80;99.90;;;;;;2077273;28;20040;-70
2021/11/25 01:19:44;;;;;;;9.73;7.90;;;7.80;99.90;;;;;;2079712;28;20025;-70
2021/11/25 01:20:47;;;;;;;9.70;7.65;;;7.80;99.90;;;;;;2079250;28;20052;-70
2021/11/25 01:21:47;;;;;;;10.98;7.85;;;7.90;99.90;;;;;;2079783;28;20486;-70
2021/11/25 01:22:48;;;;;;;10.02;7.60;;;7.80;99.90;;;;;;2079619;28;20465;-70
2021/11/25 01:23:49;;;;;;;10.18;7.35;;;7.80;99.90;;;;;;2079052;28;20029;-70
2021/11/25 01:24:49;;;;;;;9.68;7.55;;;7.80;99.90;;;;;;2079482;28;20048;-70
2021/11/25 01:25:52;;;;;;;8.77;6.95;;;7.80;99.90;;;;;;2079717;28;20057;-70
2021/11/25 01:26:55;;;;;;;8.02;7.22;;;7.80;99.90;;;;;;2077979;28;20033;-70
2021/11/25 01:27:55;;;;;;;10.82;7.45;;;7.80;99.90;;;;;;2079167;28;20370;-70
2021/11/25 01:28:56;;;;;;;9.00;7.32;;;7.80;99.90;;;;;;2079449;28;20079;-70
2021/11/25 01:29:57;;;;;;;8.73;7.32;;;7.80;99.90;;;;;;2076863;28;20033;-70
2021/11/25 01:31:00;;;;;;;7.90;6.68;;;7.80;99.90;;;;;;2070348;28;20117;-70
2021/11/25 01:32:01;;;;;;;9.93;7.85;;;7.80;99.90;;;;;;2070834;28;20124;-70
2021/11/25 01:33:02;;;;;;;9.13;6.70;;;7.90;99.90;;;;;;2078764;28;20075;-70
2021/11/25 01:34:02;;;;;;;8.25;7.45;;;7.90;99.90;;;;;;2077240;28;20032;-70
2021/11/25 01:35:04;;;;;;;12.25;7.50;;;7.80;99.90;;;;;;2078099;28;20083;-70
2021/11/25 01:36:05;;;;;;;8.32;7.50;;;7.90;99.90;;;;;;2079645;28;20390;-70
2021/11/25 01:37:06;;;;;;;9.90;7.53;;;7.90;99.90;;;;;;2078933;28;20044;-70
2021/11/25 01:38:07;;;;;;;9.98;7.78;;;7.90;99.90;;;;;;2076374;28;20018;-70
2021/11/25 01:39:08;;;;;;;8.68;7.60;;;7.90;99.90;;;;;;2073173;28;20014;-70
2021/11/25 01:40:14;;;;;;;11.30;7.40;;;7.90;99.90;;;;;;2078876;28;20053;-70
2021/11/25 01:41:17;;;;;;;8.40;7.40;;;7.90;99.90;;;;;;2076450;28;20026;-70
2021/11/25 01:42:17;;;;;;;8.93;7.05;;;7.90;99.90;;;;;;2084488;28;20017;-70
2021/11/25 01:43:22;;;;;;;9.88;7.55;;;7.90;99.90;;;;;;2079114;28;20035;-70
2021/11/25 01:44:23;;;;;;;8.20;7.20;;;7.90;99.90;;;;;;2078064;28;20029;-70
2021/11/25 01:45:25;;;;;;;10.02;7.10;;;7.90;99.90;;;;;;2071306;28;20022;-70
2021/11/25 01:46:26;;;;;;;7.57;6.68;;;7.90;99.90;;;;;;2071466;28;20049;-70
2021/11/25 01:47:27;;;;;;;7.97;6.50;;;7.90;99.90;;;;;;2078429;28;20049;-70
2021/11/25 01:48:27;;;;;;;7.53;6.47;;;7.90;99.90;;;;;;2078953;28;20104;-70
2021/11/25 01:49:28;;;;;;;7.50;6.75;;;7.90;99.90;;;;;;2077231;28;20022;-70
2021/11/25 01:50:30;;;;;;;7.80;6.60;;;7.90;99.90;;;;;;2079277;28;20029;-70
2021/11/25 01:51:31;;;;;;;8.60;6.72;;;7.90;99.90;;;;;;2078977;28;20052;-70
2021/11/25 01:52:32;;;;;;;9.38;7.55;;;7.90;99.90;;;;;;2079468;28;20116;-70
2021/11/25 01:53:33;;;;;;;8.13;7.00;;;7.90;99.90;;;;;;2078675;28;20037;-70
2021/11/25 01:54:34;;;;;;;8.05;6.70;;;7.90;99.90;;;;;;2078236;28;20032;-70
2021/11/25 01:55:34;;;;;;;8.38;7.57;;;7.90;99.90;;;;;;2079353;28;20027;-70
2021/11/25 01:56:35;;;;;;;8.25;7.28;;;7.90;99.90;;;;;;2079433;28;20032;-70
2021/11/25 01:57:36;;;;;;;7.78;7.00;;;7.90;99.90;;;;;;2079384;28;20033;-70
2021/11/25 01:58:37;;;;;;;7.72;6.93;;;7.90;99.90;;;;;;2078828;28;20100;-70
2021/11/25 01:59:38;;;;;;;7.78;6.97;;;7.90;99.90;;;;;;2076629;28;20056;-70
2021/11/25 02:01:00;;;;;;;8.18;7.38;;;7.90;99.90;;;;;;2079837;28;20024;-70
2021/11/25 02:02:01;;;;;;;10.15;7.20;;;7.90;99.90;;;;;;2079506;28;20474;-70
2021/11/25 02:03:03;;;;;;;7.70;6.95;;;7.90;99.90;;;;;;2079425;28;20476;-70
2021/11/25 02:04:05;;;;;;;8.15;6.95;;;7.90;99.90;;;;;;2079105;28;20036;-70
2021/11/25 02:05:06;;;;;;;7.45;6.72;;;7.80;99.90;;;;;;2079319;28;20355;-70
2021/11/25 02:06:09;;;;;;;7.10;6.40;;;7.80;99.90;;;;;;2079042;28;20685;-70
2021/11/25 02:07:09;;;;;;;7.22;6.40;;;7.80;99.90;;;;;;2077237;28;20080;-70
2021/11/25 02:08:10;;;;;;;10.88;7.57;;;7.80;99.90;;;;;;2071579;28;20068;-70
2021/11/25 02:09:11;;;;;;;7.95;6.50;;;7.80;99.90;;;;;;2079202;28;20432;-70
2021/11/25 02:10:13;;;;;;;9.07;6.18;;;7.80;99.90;;;;;;2079161;28;20588;-70
2021/11/25 02:11:14;;;;;;;7.72;6.65;;;7.90;99.90;;;;;;2078795;28;20579;-70
2021/11/25 02:12:15;;;;;;;7.90;6.22;;;7.80;99.90;;;;;;2079252;28;20048;-70
2021/11/25 02:13:16;;;;;;;11.55;7.10;;;7.90;99.90;;;;;;2079610;28;20100;-70
2021/11/25 02:14:17;;;;;;;8.27;6.63;;;7.90;99.90;;;;;;2077373;28;20026;-70
2021/11/25 02:15:18;;;;;;;6.72;6.07;;;7.90;99.90;;;;;;2078435;28;20424;-70
2021/11/25 02:16:19;;;;;;;7.80;7.00;;;7.90;99.90;;;;;;2073046;28;20026;-70
2021/11/25 02:17:20;;;;;;;7.15;6.45;;;7.90;99.90;;;;;;2078970;28;20017;-70
2021/11/25 02:18:22;;;;;;;7.13;6.43;;;7.90;99.90;;;;;;2079960;28;20025;-70
2021/11/25 02:19:24;;;;;;;8.10;6.50;;;7.90;99.90;;;;;;2079454;28;20560;-70
2021/11/25 02:20:29;;;;;;;8.13;7.22;;;7.90;99.90;;;;;;2077896;28;20030;-70
2021/11/25 02:21:30;;;;;;;7.35;6.50;;;7.90;99.90;;;;;;2076125;28;20029;-70
2021/11/25 02:22:31;;;;;;;7.90;7.07;;;7.90;99.90;;;;;;2080784;28;20104;-70
2021/11/25 02:23:32;;;;;;;9.82;7.28;;;7.90;99.90;;;;;;2080726;28;20692;-70
2021/11/25 02:24:32;;;;;;;6.95;6.35;;;7.90;99.90;;;;;;2085527;28;20044;-70
2021/11/25 02:25:33;;;;;;;7.25;6.55;;;7.90;99.90;;;;;;2082122;28;20087;-70
2021/11/25 02:26:34;;;;;;;7.45;6.60;;;7.90;99.90;;;;;;2078564;28;20109;-70
2021/11/25 02:27:34;;;;;;;7.45;6.60;;;7.90;99.90;;;;;;2080431;28;20439;-70
2021/11/25 02:28:37;;;;;;;8.00;6.38;;;7.90;99.90;;;;;;2080922;28;20426;-70
2021/11/25 02:29:40;;;;;;;10.25;6.50;;;7.90;99.90;;;;;;2080447;28;20033;-70
2021/11/25 02:30:41;;;;;;;8.48;7.18;;;7.90;99.90;;;;;;2080789;28;20028;-70
2021/11/25 02:31:41;;;;;;;6.97;6.28;;;7.90;99.90;;;;;;2080777;28;20018;-70
2021/11/25 02:32:45;;;;;;;7.53;6.85;;;7.90;99.90;;;;;;2081012;28;20407;-70
2021/11/25 02:33:45;;;;;;;7.00;6.40;;;7.90;99.90;;;;;;2079814;28;20818;-70
2021/11/25 02:34:46;;;;;;;8.05;6.60;;;7.90;99.90;;;;;;2077448;28;20026;-70
2021/11/25 02:35:47;;;;;;;6.43;5.75;;;7.90;99.90;;;;;;2076834;28;20112;-70
2021/11/25 02:36:48;;;;;;;7.47;6.43;;;7.90;99.90;;;;;;2078408;28;20030;-70
2021/11/25 02:37:50;;;;;;;8.80;6.50;;;7.90;99.90;;;;;;2079062;28;20057;-70
2021/11/25 02:38:51;;;;;;;6.82;6.22;;;7.90;99.90;;;;;;2087366;28;20447;-70
2021/11/25 02:39:51;;;;;;;7.43;6.72;;;7.90;99.90;;;;;;2083684;28;20017;-70
2021/11/25 02:40:55;;;;;;;7.15;6.45;;;7.90;99.90;;;;;;2072377;28;20037;-70
2021/11/25 02:41:55;;;;;;;7.68;6.88;;;7.90;99.90;;;;;;2080647;28;20021;-70
2021/11/25 02:42:59;;;;;;;7.07;6.28;;;7.90;99.90;;;;;;2080641;28;20037;-70
2021/11/25 02:44:00;;;;;;;8.05;6.20;;;7.90;99.90;;;;;;2080492;28;20026;-70
2021/11/25 02:45:00;;;;;;;7.30;6.60;;;7.90;99.90;;;;;;2080912;28;20034;-70
2021/11/25 02:46:02;;;;;;;7.47;6.60;;;7.90;99.90;;;;;;2078755;28;20033;-70
2021/11/25 02:47:03;;;;;;;7.30;6.60;;;7.90;99.90;;;;;;2072870;28;20040;-70
2021/11/25 02:48:04;;;;;;;8.02;6.60;;;7.90;99.90;;;;;;2079869;28;20148;-70
2021/11/25 02:49:04;;;;;;;7.03;6.30;;;7.90;99.90;;;;;;2079323;28;20036;-70
2021/11/25 02:50:05;;;;;;;6.57;5.70;;;7.90;99.90;;;;;;2080307;28;20660;-70
2021/11/25 02:51:07;;;;;;;7.55;6.25;;;7.90;99.90;;;;;;2079942;28;20041;-70
2021/11/25 02:52:09;;;;;;;6.68;6.07;;;7.90;99.90;;;;;;2080742;28;20022;-70
2021/11/25 02:53:10;;;;;;;7.82;6.40;;;7.90;99.90;;;;;;2080472;28;20056;-70
2021/11/25 02:54:10;;;;;;;6.38;5.78;;;7.90;99.90;;;;;;2080520;28;20060;-70
2021/11/25 02:55:13;;;;;;;7.88;5.78;;;7.90;99.90;;;;;;2080718;28;20041;-70
2021/11/25 02:56:17;;;;;;;7.40;6.70;;;7.90;99.90;;;;;;2078282;28;20032;-70
2021/11/25 02:57:17;;;;;;;6.38;5.78;;;7.90;99.90;;;;;;2078851;28;20029;-70
2021/11/25 02:58:18;;;;;;;7.20;6.50;;;7.90;99.90;;;;;;2080109;28;20743;-70
2021/11/25 02:59:19;;;;;;;7.28;6.22;;;7.90;99.90;;;;;;2079680;28;20056;-70
2021/11/25 03:00:22;;;;;;;7.47;6.63;;;7.90;99.90;;;;;;2079378;28;20037;-70
2021/11/25 03:01:25;;;;;;;7.13;6.43;;;7.90;99.90;;;;;;2081765;28;20025;-70
2021/11/25 03:02:25;;;;;;;6.97;6.22;;;7.90;99.90;;;;;;2082038;28;20109;-70
2021/11/25 03:03:26;;;;;;;10.38;7.25;;;7.90;99.90;;;;;;2081864;28;20079;-70
2021/11/25 03:04:26;;;;;;;8.15;6.63;;;7.90;99.90;;;;;;2081157;28;20026;-70
2021/11/25 03:05:29;;;;;;;7.85;7.05;;;7.90;99.90;;;;;;2080486;28;21633;-70
2021/11/25 03:06:31;;;;;;;7.57;6.78;;;7.90;99.90;;;;;;2082090;28;20017;-70
2021/11/25 03:07:31;;;;;;;8.57;7.15;;;7.90;99.90;;;;;;2081730;28;20118;-70
2021/11/25 03:08:32;;;;;;;6.50;5.80;;;7.80;99.90;;;;;;2081895;28;20553;-70
2021/11/25 03:09:33;;;;;;;8.00;6.75;;;7.80;99.90;;;;;;2081532;28;20024;-70
2021/11/25 03:10:50;;;;;;;8.15;7.35;;;7.80;99.90;;;;;;2081681;28;20113;-70
2021/11/25 03:11:53;;;;;;;8.07;7.28;;;7.80;99.90;;;;;;2081585;28;20104;-70
2021/11/25 03:12:54;;;;;;;9.32;7.28;;;7.80;99.90;;;;;;2082237;28;20079;-70
2021/11/25 03:14:02;;;;;;;6.95;6.35;;;7.80;99.90;;;;;;2081761;28;20034;-70
2021/11/25 03:15:03;;;;;;;10.63;7.75;;;7.80;99.90;;;;;;2081472;28;20162;-70
2021/11/25 03:16:05;;;;;;;7.38;6.68;;;7.70;99.90;;;;;;2081084;28;20084;-70
2021/11/25 03:17:06;;;;;;;7.85;7.07;;;7.70;99.90;;;;;;2081077;28;20021;-70
2021/11/25 03:18:10;;;;;;;7.88;6.88;;;7.70;99.90;;;;;;2080976;28;20021;-70
2021/11/25 03:19:12;;;;;;;7.78;7.07;;;7.70;99.90;;;;;;2075046;28;20026;-70
2021/11/25 03:20:13;;;;;;;7.78;7.03;;;7.70;99.90;;;;;;2073630;28;20034;-70
2021/11/25 03:21:15;;;;;;;7.43;6.70;;;7.70;99.90;;;;;;2073057;28;20045;-70
2021/11/25 03:22:16;;;;;;;8.32;7.28;;;7.70;99.90;;;;;;2073697;28;20489;-70
2021/11/25 03:23:18;;;;;;;8.05;7.25;;;7.70;99.90;;;;;;2073815;28;20092;-70
2021/11/25 03:24:19;;;;;;;8.52;7.03;;;7.70;99.90;;;;;;2077603;28;20029;-70
2021/11/25 03:25:21;;;;;;;8.82;8.02;;;7.70;99.90;;;;;;2082083;28;20021;-70
2021/11/25 03:26:24;;;;;;;8.73;7.90;;;7.70;99.90;;;;;;2081555;28;20109;-70
2021/11/25 03:27:25;;;;;;;11.00;8.45;;;7.70;99.90;;;;;;2079177;28;20028;-70
2021/11/25 03:28:26;;;;;;;9.05;7.25;;;7.80;99.90;;;;;;2080814;28;20123;-70
2021/11/25 03:29:27;;;;;;;9.13;7.90;;;7.70;99.90;;;;;;2081519;28;20107;-70
2021/11/25 03:30:27;;;;;;;8.75;6.90;;;7.70;99.90;;;;;;2081582;28;20473;-70
2021/11/25 03:31:31;;;;;;;7.40;6.72;;;7.70;99.90;;;;;;2077754;28;20425;-70
2021/11/25 03:32:31;;;;;;;7.85;7.05;;;7.70;99.90;;;;;;2081721;28;20017;-70
2021/11/25 03:33:33;;;;;;;9.02;8.07;;;7.70;99.90;;;;;;2081748;28;20025;-70
2021/11/25 03:34:34;;;;;;;8.18;7.00;;;7.70;99.90;;;;;;2081750;28;20048;-70
2021/11/25 03:35:35;;;;;;;9.07;7.90;;;7.80;99.90;;;;;;2081746;28;20045;-70
2021/11/25 03:36:36;;;;;;;8.18;7.43;;;7.70;99.90;;;;;;2078501;28;20026;-70
2021/11/25 03:37:37;;;;;;;9.38;8.20;;;7.70;99.90;;;;;;2080820;28;20474;-70
2021/11/25 03:38:38;;;;;;;9.25;8.45;;;7.70;99.90;;;;;;2081617;28;20134;-70
2021/11/25 03:39:39;;;;;;;7.90;7.13;;;7.70;99.90;;;;;;2081395;28;20017;-70
2021/11/25 03:40:39;;;;;;;9.23;7.38;;;7.80;99.90;;;;;;2081781;28;20021;-70
2021/11/25 03:41:40;;;;;;;7.32;6.65;;;7.80;99.90;;;;;;2076177;28;20470;-70
2021/11/25 03:42:41;;;;;;;7.55;6.85;;;7.70;99.90;;;;;;2073646;28;20018;-70
2021/11/25 03:43:42;;;;;;;7.85;6.85;;;7.80;99.90;;;;;;2074062;28;20096;-70
2021/11/25 03:44:44;;;;;;;9.15;8.27;;;7.80;99.90;;;;;;2080166;28;20029;-70
2021/11/25 03:45:45;;;;;;;8.07;7.28;;;7.80;99.90;;;;;;2081832;28;20056;-70
2021/11/25 03:46:45;;;;;;;8.35;7.55;;;7.80;99.90;;;;;;2076692;28;20048;-70
2021/11/25 03:47:46;;;;;;;10.27;7.95;;;7.80;99.90;;;;;;2079519;28;20044;-70
2021/11/25 03:48:47;;;;;;;9.60;8.45;;;7.80;99.90;;;;;;2075534;28;20030;-70
2021/11/25 03:49:47;;;;;;;8.57;7.65;;;7.80;99.90;;;;;;2081358;28;20087;-70
2021/11/25 03:50:48;;;;;;;9.38;7.50;;;7.80;99.90;;;;;;2081089;28;20096;-70
2021/11/25 03:51:48;;;;;;;8.20;7.40;;;7.80;99.90;;;;;;2073093;28;20025;-70
2021/11/25 03:52:49;;;;;;;7.82;7.05;;;7.80;99.90;;;;;;2073570;28;20032;-70
2021/11/25 03:53:50;;;;;;;9.15;7.32;;;7.80;99.90;;;;;;2074320;28;20058;-70
2021/11/25 03:54:54;;;;;;;10.85;7.88;;;7.80;99.90;;;;;;2081706;28;20057;-70
2021/11/25 03:55:55;;;;;;;7.60;6.90;;;7.80;99.90;;;;;;2081827;28;20100;-70
2021/11/25 03:56:56;;;;;;;8.35;7.55;;;7.80;99.90;;;;;;2081669;28;20025;-70
2021/11/25 03:57:57;;;;;;;8.52;7.63;;;7.80;99.90;;;;;;2081346;28;20025;-70
2021/11/25 03:58:58;;;;;;;8.25;7.45;;;7.80;99.90;;;;;;2081676;28;20406;-70
2021/11/25 03:59:59;;;;;;;11.18;9.32;;;7.80;99.90;;;;;;2081385;28;20127;-70
2021/11/25 04:01:00;;;;;;;9.50;8.50;;;7.80;99.90;;;;;;2077653;28;20413;-70
2021/11/25 04:02:01;;;;;;;8.80;7.90;;;7.80;99.90;;;;;;2079700;28;20071;-70
2021/11/25 04:03:02;;;;;;;7.57;6.80;;;7.80;99.90;;;;;;2081041;28;20025;-70
2021/11/25 04:04:03;;;;;;;8.35;7.53;;;7.80;99.90;;;;;;2080631;28;20036;-70
2021/11/25 04:05:04;;;;;;;8.23;7.43;;;7.80;99.90;;;;;;2080851;28;20037;-70
2021/11/25 04:06:05;;;;;;;8.98;7.95;;;7.80;99.90;;;;;;2080223;28;20033;-70
2021/11/25 04:07:06;;;;;;;8.02;7.32;;;7.80;99.90;;;;;;2079491;28;20037;-70
2021/11/25 04:08:06;;;;;;;9.38;8.32;;;7.80;99.90;;;;;;2079546;28;20025;-70
2021/11/25 04:09:07;;;;;;;9.05;8.18;;;7.80;99.90;;;;;;2079303;28;20033;-70
2021/11/25 04:10:10;;;;;;;8.30;7.45;;;7.80;99.90;;;;;;2080018;28;20048;-70
2021/11/25 04:11:11;;;;;;;8.60;7.70;;;7.80;99.90;;;;;;2075449;28;20474;-70
2021/11/25 04:12:11;;;;;;;10.85;7.95;;;7.80;99.90;;;;;;2080571;28;20406;-70
2021/11/25 04:13:12;;;;;;;8.65;7.85;;;7.80;99.90;;;;;;2080176;28;20068;-70
2021/11/25 04:14:13;;;;;;;8.90;8.00;;;7.80;99.90;;;;;;2080108;28;20043;-70
2021/11/25 04:15:16;;;;;;;10.48;7.65;;;7.80;99.90;;;;;;2080132;28;20385;-70
2021/11/25 04:16:16;;;;;;;8.95;8.05;;;7.80;99.90;;;;;;2079978;28;20025;-70
2021/11/25 04:17:21;;;;;;;8.95;8.15;;;7.80;99.90;;;;;;2079864;28;20022;-70
2021/11/25 04:18:22;;;;;;;8.63;7.80;;;7.80;99.90;;;;;;2080212;28;20052;-70
2021/11/25 04:19:22;;;;;;;9.23;8.35;;;7.80;99.90;;;;;;2079469;28;20017;-70
2021/11/25 04:20:23;;;;;;;9.43;8.52;;;7.80;99.90;;;;;;2078864;28;20544;-70
2021/11/25 04:21:25;;;;;;;8.10;7.25;;;7.70;99.90;;;;;;2079333;28;20108;-70
2021/11/25 04:22:25;;;;;;;8.25;7.38;;;7.80;99.90;;;;;;2080419;28;20033;-70
2021/11/25 04:23:26;;;;;;;8.10;7.35;;;7.80;99.90;;;;;;2080103;28;20022;-70
2021/11/25 04:24:27;;;;;;;10.68;8.40;;;7.80;99.90;;;;;;2080122;28;20056;-70
2021/11/25 04:25:28;;;;;;;8.63;7.82;;;7.80;99.90;;;;;;2080179;28;20083;-70
2021/11/25 04:26:28;;;;;;;8.10;7.00;;;7.80;99.90;;;;;;2078820;28;20754;-70
2021/11/25 04:27:29;;;;;;;8.27;7.53;;;7.80;99.90;;;;;;2078601;28;20049;-70
2021/11/25 04:28:30;;;;;;;9.50;8.07;;;7.70;99.90;;;;;;2080204;28;20025;-70
2021/11/25 04:29:31;;;;;;;8.88;7.85;;;7.70;99.90;;;;;;2079710;28;20124;-70
2021/11/25 04:35:40;;;;;;;8.73;7.93;;;7.60;99.90;;;;;;2071872;28;20884;-70
2021/11/25 04:36:41;;;;;;;10.05;8.65;;;7.60;99.90;;;;;;2076267;28;20425;-70
2021/11/25 04:37:42;;;;;;;9.25;8.35;;;7.60;99.90;;;;;;2080097;28;20025;-70
2021/11/25 04:38:43;;;;;;;8.90;7.97;;;7.60;99.90;;;;;;2080274;28;20067;-70
2021/11/25 04:39:43;;;;;;;9.63;8.73;;;7.60;99.90;;;;;;2079638;28;20144;-70
2021/11/25 04:40:50;;;;;;;9.73;8.73;;;7.70;99.90;;;;;;2080276;28;20017;-70
2021/11/25 04:41:51;;;;;;;9.20;7.90;;;7.70;99.90;;;;;;2079756;28;20025;-70
2021/11/25 04:42:51;;;;;;;9.57;8.57;;;7.70;99.90;;;;;;2080283;28;20490;-70
2021/11/25 04:43:52;;;;;;;8.88;8.02;;;7.70;99.90;;;;;;2079754;28;20083;-70
2021/11/25 04:44:53;;;;;;;10.15;9.13;;;7.70;99.90;;;;;;2080205;28;20029;-70
2021/11/25 04:45:55;;;;;;;9.55;8.55;;;7.70;99.90;;;;;;2078953;28;20041;-70
2021/11/25 04:46:55;;;;;;;13.05;7.10;;;7.70;99.90;;;;;;2074345;28;20535;-70
2021/11/25 04:47:56;;;;;;;9.40;7.88;;;7.70;99.90;;;;;;2079820;28;20527;-70
2021/11/25 04:48:57;;;;;;;8.13;7.32;;;7.70;99.90;;;;;;2080052;28;20034;-70
2021/11/25 04:49:57;;;;;;;11.52;9.18;;;7.70;99.90;;;;;;2079525;28;20039;-70
2021/11/25 04:50:58;;;;;;;8.18;7.38;;;7.70;99.90;;;;;;2077570;28;20033;-70
2021/11/25 04:51:58;;;;;;;8.27;7.47;;;7.70;99.90;;;;;;2078242;28;20021;-70
2021/11/25 04:53:00;;;;;;;8.43;7.60;;;7.70;99.90;;;;;;2079694;28;20037;-70
2021/11/25 04:54:01;;;;;;;7.88;7.07;;;7.70;99.90;;;;;;2079589;28;20554;-70
2021/11/25 04:55:01;;;;;;;8.57;7.78;;;7.70;99.90;;;;;;2079025;28;20111;-70
2021/11/25 04:56:02;;;;;;;9.38;7.88;;;7.70;99.90;;;;;;2078465;28;20475;-70
2021/11/25 04:57:03;;;;;;;7.93;7.22;;;7.70;99.90;;;;;;2079646;28;20026;-70
2021/11/25 04:58:05;;;;;;;8.75;7.85;;;7.60;99.90;;;;;;2079784;28;20063;-70
2021/11/25 04:59:05;;;;;;;10.93;8.13;;;7.70;99.90;;;;;;2079463;28;20029;-70
2021/11/25 05:00:08;;;;;;;11.35;7.97;;;7.60;99.90;;;;;;2079767;28;20108;-70
2021/11/25 05:01:09;;;;;;;9.63;8.48;;;7.60;99.90;;;;;;2079636;28;20374;-70
2021/11/25 05:02:09;;;;;;;8.35;7.55;;;7.60;99.90;;;;;;2079780;28;20022;-70
2021/11/25 05:03:10;;;;;;;8.50;7.70;;;7.60;99.90;;;;;;2079599;28;20018;-70
2021/11/25 05:04:11;;;;;;;8.73;7.93;;;7.60;99.90;;;;;;2075492;28;20838;-70
2021/11/25 05:05:11;;;;;;;9.23;8.15;;;7.50;99.90;;;;;;2079593;28;20029;-70
2021/11/25 05:06:12;;;;;;;9.93;8.65;;;7.50;99.90;;;;;;2078879;28;20025;-70
2021/11/25 05:07:13;;;;;;;9.50;8.57;;;7.50;99.90;;;;;;2075964;28;20018;-70
2021/11/25 05:08:14;;;;;;;9.40;8.50;;;7.50;99.90;;;;;;2076553;28;20044;-70
2021/11/25 05:09:15;;;;;;;9.45;8.48;;;7.40;99.90;;;;;;2079600;28;20060;-70
2021/11/25 05:10:16;;;;;;;8.15;7.15;;;7.40;99.90;;;;;;2079607;28;20079;-70
2021/11/25 05:11:16;;;;;;;8.65;7.85;;;7.40;99.90;;;;;;2079826;28;20083;-70
2021/11/25 05:12:17;;;;;;;8.57;7.78;;;7.40;99.90;;;;;;2079812;28;20030;-70
2021/11/25 05:13:17;;;;;;;8.70;7.70;;;7.30;99.90;;;;;;2079841;28;20026;-70
2021/11/25 05:14:18;;;;;;;8.88;7.97;;;7.30;99.90;;;;;;2079387;28;20018;-70
2021/11/25 05:15:19;;;;;;;10.38;8.95;;;7.30;99.90;;;;;;2079788;28;20465;-70
2021/11/25 05:16:19;;;;;;;9.07;7.70;;;7.20;99.90;;;;;;2076523;28;20082;-70
2021/11/25 05:17:20;;;;;;;8.98;8.07;;;7.20;99.90;;;;;;2078576;28;20107;-70
2021/11/25 05:18:21;;;;;;;10.63;8.80;;;7.20;99.90;;;;;;2079627;28;20076;-70
2021/11/25 05:19:21;;;;;;;7.90;7.07;;;7.10;99.90;;;;;;2079129;28;20024;-70
2021/11/25 05:20:22;;;;;;;8.85;7.95;;;7.10;99.90;;;;;;2079685;28;20100;-70
2021/11/25 05:21:22;;;;;;;8.68;7.82;;;7.10;99.90;;;;;;2079448;28;20734;-70
2021/11/25 05:22:23;;;;;;;8.38;7.68;;;7.00;99.90;;;;;;2077672;28;20136;-70
2021/11/25 05:23:23;;;;;;;8.55;7.72;;;7.00;99.90;;;;;;2076974;28;20022;-70
2021/11/25 05:24:24;;;;;;;8.10;7.38;;;7.00;99.90;;;;;;2078883;28;20024;-70
2021/11/25 05:25:25;;;;;;;7.88;7.18;;;6.90;99.90;;;;;;2077467;28;20022;-70
2021/11/25 05:26:25;;;;;;;8.35;7.65;;;6.90;99.90;;;;;;2079692;28;20032;-70
2021/11/25 05:27:26;;;;;;;8.35;7.55;;;6.90;99.90;;;;;;2075738;28;20021;-70